Time;durP1;ratioP1;P1;durP2;ratioP2;P2;SDS_P1;SDS_P2;PMS_P1;PMS_P2;Temp;Humidity;BMP_temperature;BMP_pressure;BME280_temperature;BME280_humidity;BME280_pressure;Samples;Min_cycle;Max_cycle;Signal;HPM_P1;HPM_P2
2023/03/30 13:48:07;;;;;;;20.90;12.80;;;;;;;12.98;100.00;99660.14;5299646;54;47497;-76
2023/03/30 13:53:14;;;;;;;17.30;9.35;;;;;;;12.94;100.00;99655.29;5027284;56;1138827;-78
2023/03/30 13:58:32;;;;;;;14.00;8.23;;;;;;;12.93;100.00;99643.84;5026691;56;1140950;-77
2023/03/30 14:03:50;;;;;;;19.10;8.73;;;;;;;12.96;100.00;99628.11;5058848;55;1140918;-74
2023/03/30 14:09:11;;;;;;;21.75;13.13;;;;;;;13.00;100.00;99618.81;5153921;55;1140884;-81
2023/03/30 14:14:33;;;;;;;16.93;12.00;;;;;;;13.02;100.00;99613.70;5129871;55;1143174;-80
2023/03/30 14:19:42;;;;;;;13.03;7.50;;;;;;;13.05;100.00;99593.97;5139834;55;1143111;-77
2023/03/30 14:25:01;;;;;;;15.83;9.18;;;;;;;13.11;100.00;99585.89;5168673;55;1140951;-82
2023/03/30 14:30:28;;;;;;;16.23;9.97;;;;;;;13.17;100.00;99575.48;4997295;57;1141073;-80
2023/03/30 14:35:34;;;;;;;19.47;8.87;;;;;;;13.23;100.00;99578.01;4970963;56;1140943;-80
2023/03/30 14:40:40;;;;;;;13.27;7.97;;;;;;;13.28;100.00;99562.44;5012790;56;1141275;-80
2023/03/30 14:45:46;;;;;;;26.87;10.07;;;;;;;13.31;100.00;99558.11;5032569;56;1141108;-83
2023/03/30 14:50:52;;;;;;;36.80;15.28;;;;;;;13.31;100.00;99556.29;5017135;56;1143350;-79
2023/03/30 14:56:01;;;;;;;14.87;8.83;;;;;;;13.34;100.00;99539.20;5030595;57;1143082;-80
2023/03/30 15:01:10;;;;;;;39.37;15.40;;;;;;;13.36;100.00;99519.97;5049617;57;1141027;-78
2023/03/30 15:06:20;;;;;;;25.30;11.95;;;;;;;13.41;100.00;99515.02;5051468;56;1142966;-79
2023/03/30 15:11:29;;;;;;;28.83;10.90;;;;;;;13.50;100.00;99508.72;5062491;55;1143013;-81
2023/03/30 15:16:37;;;;;;;12.50;7.20;;;;;;;13.53;100.00;99501.76;5036049;56;1142976;-79
2023/03/30 15:21:43;;;;;;;17.25;8.10;;;;;;;13.54;100.00;99506.08;5033490;56;1140856;-80
2023/03/30 15:26:50;;;;;;;19.37;8.10;;;;;;;13.52;100.00;99505.41;5048637;56;1140949;-78
2023/03/30 15:32:18;;;;;;;17.25;6.97;;;;;;;13.49;100.00;99504.39;5049133;56;1140917;-79
2023/03/30 15:37:24;;;;;;;29.63;12.67;;;;;;;13.46;100.00;99501.22;5088596;56;1140890;-76
2023/03/30 15:42:32;;;;;;;25.00;12.93;;;;;;;13.42;100.00;99503.40;5100540;56;1143175;-78
2023/03/30 15:47:38;;;;;;;21.93;11.67;;;;;;;13.42;100.00;99498.58;5119790;56;1143254;-82
2023/03/30 15:52:45;;;;;;;21.63;9.60;;;;;;;13.41;100.00;99504.39;5083053;55;1145774;-76
2023/03/30 15:57:53;;;;;;;32.57;19.27;;;;;;;13.38;100.00;99506.87;5108001;55;1141013;-77
2023/03/30 16:03:02;;;;;;;24.00;15.58;;;;;;;13.36;100.00;99509.34;5134249;55;1142893;-81
2023/03/30 16:08:08;;;;;;;26.60;11.67;;;;;;;13.33;100.00;99502.52;5086668;55;1143108;-78
2023/03/30 16:13:15;;;;;;;64.03;21.97;;;;;;;13.31;100.00;99505.84;5057854;56;1142964;-82
2023/03/30 16:18:20;;;;;;;41.33;21.45;;;;;;;13.33;100.00;99488.41;5017639;56;1143088;-78
2023/03/30 16:23:26;;;;;;;42.13;19.60;;;;;;;13.35;100.00;99498.38;5116510;55;1143239;-82
2023/03/30 16:28:32;;;;;;;23.83;9.57;;;;;;;13.35;100.00;99500.55;5121292;55;1143048;-76
2023/03/30 16:33:37;;;;;;;35.90;11.90;;;;;;;13.42;100.00;99491.45;5113364;55;1141143;-79
2023/03/30 16:38:44;;;;;;;34.96;13.56;;;;;;;13.42;100.00;99491.45;5074721;56;1143066;-80
2023/03/30 16:43:50;;;;;;;27.87;11.35;;;;;;;13.43;100.00;99493.61;5031396;56;1143065;-76
2023/03/30 16:48:56;;;;;;;15.38;8.73;;;;;;;13.43;100.00;99492.28;5113608;55;1143032;-77
2023/03/30 16:54:02;;;;;;;23.73;14.93;;;;;;;13.39;100.00;99493.09;5135580;55;1140894;-79
2023/03/30 16:59:23;;;;;;;24.40;12.57;;;;;;;13.37;100.00;99477.81;5065046;55;1142993;-77
2023/03/30 17:04:29;;;;;;;27.80;11.70;;;;;;;13.33;100.00;99470.66;5082184;55;1143083;-78
2023/03/30 17:09:35;;;;;;;25.87;14.57;;;;;;;13.26;100.00;99478.95;5091595;55;1142947;-77
2023/03/30 17:14:40;;;;;;;23.47;9.07;;;;;;;13.22;100.00;99475.45;5062211;56;1143073;-80
2023/03/30 17:19:46;;;;;;;24.57;12.77;;;;;;;13.16;100.00;99469.44;5093298;55;1141032;-78
2023/03/30 17:24:52;;;;;;;18.23;8.88;;;;;;;13.11;100.00;99471.73;5095143;55;1143241;-80
2023/03/30 17:29:58;;;;;;;18.50;9.63;;;;;;;13.06;100.00;99488.63;5086958;55;1141356;-79
2023/03/30 17:35:04;;;;;;;35.97;13.97;;;;;;;13.01;100.00;99475.33;5070427;55;1141002;-78
2023/03/30 17:40:23;;;;;;;51.83;33.33;;;;;;;12.98;100.00;99477.50;5037831;56;1143182;-77
2023/03/30 17:45:29;;;;;;;61.30;28.13;;;;;;;12.97;100.00;99480.64;5077746;55;1143231;-77
2023/03/30 17:50:46;;;;;;;24.87;11.70;;;;;;;12.95;100.00;99503.02;5155807;55;1142953;-78
2023/03/30 17:55:51;;;;;;;9.07;5.43;;;;;;;12.92;100.00;99523.23;5114439;55;1143008;-76
2023/03/30 18:00:57;;;;;;;7.23;4.47;;;;;;;12.87;100.00;99541.45;5079744;55;1138989;-75
2023/03/30 18:06:03;;;;;;;2.02;1.57;;;;;;;12.72;100.00;99546.99;5121730;55;1139060;-79
2023/03/30 18:11:09;;;;;;;4.93;1.87;;;;;;;12.36;100.00;99556.38;5125484;55;1138816;-69
2023/03/30 18:16:16;;;;;;;3.13;1.70;;;;;;;12.03;100.00;99576.95;5098786;55;1138903;-69
2023/03/30 18:21:22;;;;;;;1.77;1.50;;;;;;;11.75;100.00;99576.98;5098924;56;1138825;-71
2023/03/30 18:26:28;;;;;;;2.00;1.20;;;;;;;11.60;100.00;99583.28;5127143;55;1138940;-73
2023/03/30 18:31:33;;;;;;;3.00;2.10;;;;;;;11.43;100.00;99577.94;5148098;55;1139005;-69
2023/03/30 18:36:39;;;;;;;2.13;1.60;;;;;;;11.34;100.00;99578.80;5099358;56;1139003;-69
2023/03/30 18:41:45;;;;;;;1.30;1.20;;;;;;;11.16;100.00;99574.77;5117824;56;1223258;-70
2023/03/30 18:46:51;;;;;;;5.47;1.67;;;;;;;11.04;100.00;99582.55;5125664;55;1138902;-71
2023/03/30 18:51:57;;;;;;;1.70;1.30;;;;;;;10.89;100.00;99582.18;5151946;55;1138935;-70
2023/03/30 18:57:03;;;;;;;12.23;2.47;;;;;;;10.79;100.00;99586.19;5135954;55;1138812;-66
2023/03/30 19:02:10;;;;;;;4.83;1.93;;;;;;;10.72;100.00;99587.72;5101235;56;1140956;-72
2023/03/30 19:07:15;;;;;;;5.47;2.50;;;;;;;10.70;100.00;99572.97;5099416;55;1138795;-70
2023/03/30 19:12:21;;;;;;;6.05;3.50;;;;;;;10.70;100.00;99563.70;5109452;55;1138770;-73
2023/03/30 19:17:27;;;;;;;12.57;5.07;;;;;;;10.72;100.00;99572.34;5119265;56;1138869;-69
2023/03/30 19:22:32;;;;;;;4.37;2.33;;;;;;;10.64;100.00;99586.29;5139185;55;1141200;-71
2023/03/30 19:27:39;;;;;;;4.20;2.97;;;;;;;10.57;100.00;99590.46;5160222;55;1138839;-73
2023/03/30 19:32:46;;;;;;;5.53;2.83;;;;;;;10.50;100.00;99602.11;5161786;55;1139011;-71
2023/03/30 19:37:52;;;;;;;7.27;3.30;;;;;;;10.42;100.00;99607.73;5124004;55;1138825;-70
2023/03/30 19:42:57;;;;;;;7.07;3.47;;;;;;;10.33;100.00;99609.42;5099198;56;1138777;-71
2023/03/30 19:48:03;;;;;;;9.40;5.53;;;;;;;10.28;100.00;99598.42;5183354;55;1139190;-70
2023/03/30 19:53:09;;;;;;;17.80;8.53;;;;;;;10.27;100.00;99600.72;5185801;55;1138914;-68
2023/03/30 19:58:15;;;;;;;6.43;3.63;;;;;;;10.19;100.00;99613.31;5145877;55;1140964;-71
2023/03/30 20:03:20;;;;;;;6.00;4.22;;;;;;;10.11;100.00;99609.16;5134888;55;1139247;-70
2023/03/30 20:08:26;;;;;;;7.43;3.67;;;;;;;10.05;100.00;99598.33;5150999;55;1138665;-72
2023/03/30 20:13:32;;;;;;;7.90;5.07;;;;;;;9.97;100.00;99600.32;5143401;55;1138937;-72
2023/03/30 20:18:39;;;;;;;5.75;3.83;;;;;;;9.95;100.00;99594.82;5121720;55;1136628;-66
2023/03/30 20:23:45;;;;;;;7.03;3.13;;;;;;;9.96;100.00;99591.21;5160173;55;1137059;-69
2023/03/30 20:28:51;;;;;;;5.97;3.90;;;;;;;9.98;100.00;99594.55;5134270;55;1136826;-72
2023/03/30 20:33:57;;;;;;;5.07;4.47;;;;;;;9.98;100.00;99595.88;5091492;56;1136833;-68
2023/03/30 20:39:05;;;;;;;3.37;3.08;;;;;;;9.98;100.00;99596.71;5069841;56;1136873;-73
2023/03/30 20:44:11;;;;;;;4.90;2.70;;;;;;;10.00;100.00;99601.38;5091150;56;1136708;-71
2023/03/30 20:49:18;;;;;;;5.00;3.13;;;;;;;10.00;100.00;99602.69;5129561;55;1138795;-69
2023/03/30 20:54:23;;;;;;;4.83;3.40;;;;;;;9.98;100.00;99599.84;5179107;55;1139078;-72
2023/03/30 20:59:29;;;;;;;6.83;3.23;;;;;;;10.00;100.00;99599.22;5138762;55;1136927;-71
2023/03/30 21:04:35;;;;;;;5.60;3.40;;;;;;;10.02;100.00;99595.95;5059816;56;1138866;-72
2023/03/30 21:09:40;;;;;;;5.90;3.70;;;;;;;10.02;100.00;99584.91;5055816;56;1138976;-74
2023/03/30 21:14:46;;;;;;;4.27;3.37;;;;;;;10.02;100.00;99571.70;5058624;56;1138746;-73
2023/03/30 21:19:52;;;;;;;8.13;4.60;;;;;;;10.02;100.00;99588.03;5041690;56;1138918;-72
2023/03/30 21:24:57;;;;;;;6.35;4.85;;;;;;;9.97;100.00;99592.39;5067958;56;1138866;-73
2023/03/30 21:30:04;;;;;;;6.33;4.10;;;;;;;9.97;100.00;99595.52;5062449;55;1136777;-69
2023/03/30 21:35:09;;;;;;;7.97;4.13;;;;;;;9.95;100.00;99589.05;5054431;55;1136829;-75
2023/03/30 21:40:15;;;;;;;6.40;4.67;;;;;;;9.94;100.00;99592.67;5086860;56;1137003;-75
2023/03/30 21:45:21;;;;;;;6.53;3.80;;;;;;;9.89;100.00;99601.51;5042088;56;1137000;-67
2023/03/30 21:50:26;;;;;;;6.60;3.67;;;;;;;9.87;100.00;99598.16;5094242;55;1136783;-71
2023/03/30 21:55:32;;;;;;;7.60;4.10;;;;;;;9.85;100.00;99601.42;5111656;55;1136726;-70
2023/03/30 22:00:38;;;;;;;6.30;4.27;;;;;;;9.85;100.00;99604.90;5102309;55;1136687;-69
2023/03/30 22:05:45;;;;;;;13.40;4.80;;;;;;;9.85;100.00;99604.06;5119422;56;1136828;-68
2023/03/30 22:11:00;;;;;;;6.13;3.80;;;;;;;9.79;100.00;99609.88;5114973;55;1139057;-70
2023/03/30 22:16:26;;;;;;;5.30;4.13;;;;;;;9.74;100.00;99608.98;5084967;55;1136980;-68
2023/03/30 22:21:34;;;;;;;;;;;;;;;9.70;100.00;99619.95;5019449;56;1136773;-71
2023/03/30 22:26:40;;;;;;;6.57;3.90;;;;;;;9.66;100.00;99622.50;5051516;57;974078;-67
2023/03/30 22:31:45;;;;;;;8.30;4.70;;;;;;;9.60;100.00;99614.66;5011397;57;1134654;-73
2023/03/30 22:36:51;;;;;;;7.77;3.97;;;;;;;9.56;100.00;99622.48;4991941;57;1136819;-73
2023/03/30 22:41:57;;;;;;;8.25;3.85;;;;;;;9.53;100.00;99627.54;5030984;57;1136891;-70
2023/03/30 22:47:03;;;;;;;9.43;4.72;;;;;;;9.50;100.00;99619.88;5023563;56;1136757;-70
2023/03/30 22:52:08;;;;;;;11.87;5.50;;;;;;;9.48;100.00;99625.78;4998979;56;1136898;-73
2023/03/30 22:57:14;;;;;;;10.47;5.00;;;;;;;9.47;100.00;99635.17;5091304;55;1139068;-73
2023/03/30 23:02:20;;;;;;;7.73;3.80;;;;;;;9.45;100.00;99636.63;5079634;55;1138858;-73
2023/03/30 23:07:30;;;;;;;4.37;3.70;;;;;;;9.43;100.00;99635.92;5104771;55;1136934;-72
2023/03/30 23:12:34;;;;;;;7.90;4.30;;;;;;;9.43;100.00;99633.77;5105969;55;1136811;-69
2023/03/30 23:17:41;;;;;;;9.57;4.33;;;;;;;9.39;100.00;99637.63;5121418;55;1136727;-69
2023/03/30 23:22:51;;;;;;;8.90;4.27;;;;;;;9.32;100.00;99638.62;5112642;55;1136836;-71
2023/03/30 23:27:57;;;;;;;7.22;3.95;;;;;;;9.25;100.00;99636.19;5110477;55;1136760;-69
2023/03/30 23:33:02;;;;;;;12.95;4.97;;;;;;;9.22;100.00;99644.36;5133928;55;1136756;-68
2023/03/30 23:38:09;;;;;;;5.60;3.83;;;;;;;9.22;100.00;99643.52;5115266;55;1138859;-72
2023/03/30 23:43:15;;;;;;;8.80;4.07;;;;;;;9.22;100.00;99640.40;5111007;55;1136995;-70
2023/03/30 23:48:20;;;;;;;9.55;4.25;;;;;;;9.21;100.00;99627.34;5107463;56;1136783;-69
2023/03/30 23:53:26;;;;;;;6.20;3.77;;;;;;;9.18;100.00;99624.48;5133684;55;1136841;-72
2023/03/30 23:58:32;;;;;;;8.83;4.70;;;;;;;9.20;100.00;99617.75;5111193;55;1136802;-70
